sensor_id;sensor_type;location;lat;lon;timestamp;pressure;altitude;pressure_sealevel;temperature;humidity
68366;BME280;55283;51.466;5.478;2022-11-20T00:01:42;101118.09;;;21.36;26.86
68366;BME280;55283;51.466;5.478;2022-11-20T00:04:08;101113.28;;;21.36;27.15
68366;BME280;55283;51.466;5.478;2022-11-20T00:06:38;101103.28;;;21.35;27.15
68366;BME280;55283;51.466;5.478;2022-11-20T00:09:03;101105.75;;;21.33;27.30
68366;BME280;55283;51.466;5.478;2022-11-20T00:11:32;101100.91;;;21.34;27.18
68366;BME280;55283;51.466;5.478;2022-11-20T00:13:59;101112.56;;;21.32;27.12
68366;BME280;55283;51.466;5.478;2022-11-20T00:16:27;101111.78;;;21.32;27.04
68366;BME280;55283;51.466;5.478;2022-11-20T00:18:53;101107.41;;;21.31;27.17
68366;BME280;55283;51.466;5.478;2022-11-20T00:21:23;101113.81;;;21.31;27.00
68366;BME280;55283;51.466;5.478;2022-11-20T00:23:50;101111.00;;;21.31;27.16
68366;BME280;55283;51.466;5.478;2022-11-20T00:26:18;101101.03;;;21.30;27.12
68366;BME280;55283;51.466;5.478;2022-11-20T00:28:49;101096.84;;;21.22;27.14
68366;BME280;55283;51.466;5.478;2022-11-20T00:31:15;101106.38;;;21.24;27.06
68366;BME280;55283;51.466;5.478;2022-11-20T00:33:42;101100.31;;;21.26;27.20
68366;BME280;55283;51.466;5.478;2022-11-20T00:36:10;101097.19;;;21.24;26.96
68366;BME280;55283;51.466;5.478;2022-11-20T00:38:36;101100.00;;;21.24;27.20
68366;BME280;55283;51.466;5.478;2022-11-20T00:41:06;101087.63;;;21.21;27.19
68366;BME280;55283;51.466;5.478;2022-11-20T00:43:34;101097.63;;;21.22;27.16
68366;BME280;55283;51.466;5.478;2022-11-20T00:46:01;101109.28;;;21.21;27.21
68366;BME280;55283;51.466;5.478;2022-11-20T00:48:32;101102.44;;;21.22;27.13
68366;BME280;55283;51.466;5.478;2022-11-20T00:50:58;101103.69;;;21.21;26.95
68366;BME280;55283;51.466;5.478;2022-11-20T00:53:26;101094.44;;;21.20;26.96
68366;BME280;55283;51.466;5.478;2022-11-20T00:56:05;101101.41;;;21.16;27.10
68366;BME280;55283;51.466;5.478;2022-11-20T00:58:33;101095.78;;;21.16;27.10
68366;BME280;55283;51.466;5.478;2022-11-20T01:01:03;101088.94;;;21.17;27.06
68366;BME280;55283;51.466;5.478;2022-11-20T01:03:31;101096.94;;;21.18;26.93
68366;BME280;55283;51.466;5.478;2022-11-20T01:06:18;101095.78;;;21.16;26.79
68366;BME280;55283;51.466;5.478;2022-11-20T01:08:45;101098.59;;;21.16;27.02
68366;BME280;55283;51.466;5.478;2022-11-20T01:11:16;101098.22;;;21.14;27.04
68366;BME280;55283;51.466;5.478;2022-11-20T01:13:41;101097.44;;;21.13;27.12
68366;BME280;55283;51.466;5.478;2022-11-20T01:18:33;101087.88;;;21.11;27.01
68366;BME280;55283;51.466;5.478;2022-11-20T01:21:08;101096.28;;;21.11;27.13
68366;BME280;55283;51.466;5.478;2022-11-20T01:23:36;101104.34;;;21.09;27.06
68366;BME280;55283;51.466;5.478;2022-11-20T01:26:07;101099.19;;;21.07;26.93
68366;BME280;55283;51.466;5.478;2022-11-20T01:28:33;101103.56;;;21.08;26.95
68366;BME280;55283;51.466;5.478;2022-11-20T01:30:59;101095.59;;;21.07;26.99
68366;BME280;55283;51.466;5.478;2022-11-20T01:33:25;101090.31;;;21.09;26.95
68366;BME280;55283;51.466;5.478;2022-11-20T01:35:51;101092.00;;;21.06;26.84
68366;BME280;55283;51.466;5.478;2022-11-20T01:38:17;101088.06;;;21.03;26.98
68366;BME280;55283;51.466;5.478;2022-11-20T01:40:42;101096.03;;;21.05;26.86
68366;BME280;55283;51.466;5.478;2022-11-20T01:43:19;101086.84;;;21.05;26.99
68366;BME280;55283;51.466;5.478;2022-11-20T01:46:00;101088.94;;;21.00;26.91
68366;BME280;55283;51.466;5.478;2022-11-20T01:48:40;101095.34;;;21.01;26.88
68366;BME280;55283;51.466;5.478;2022-11-20T01:51:16;101093.31;;;21.01;26.82
68366;BME280;55283;51.466;5.478;2022-11-20T01:53:42;101086.13;;;21.00;26.90
68366;BME280;55283;51.466;5.478;2022-11-20T01:56:09;101091.41;;;20.98;26.83
68366;BME280;55283;51.466;5.478;2022-11-20T01:58:40;101093.41;;;20.98;26.93
68366;BME280;55283;51.466;5.478;2022-11-20T02:01:06;101093.06;;;20.96;27.00
68366;BME280;55283;51.466;5.478;2022-11-20T02:03:32;101097.09;;;20.95;26.85
68366;BME280;55283;51.466;5.478;2022-11-20T02:08:26;101088.25;;;20.96;27.08
68366;BME280;55283;51.466;5.478;2022-11-20T02:10:52;101089.47;;;20.95;26.94
68366;BME280;55283;51.466;5.478;2022-11-20T02:13:18;101081.13;;;20.92;26.92
68366;BME280;55283;51.466;5.478;2022-11-20T02:16:03;101074.75;;;20.91;26.92
68366;BME280;55283;51.466;5.478;2022-11-20T02:18:28;101090.00;;;20.90;26.98
68366;BME280;55283;51.466;5.478;2022-11-20T02:21:05;101085.91;;;20.95;27.18
68366;BME280;55283;51.466;5.478;2022-11-20T02:23:39;101073.19;;;20.90;26.94
68366;BME280;55283;51.466;5.478;2022-11-20T02:26:10;101078.00;;;20.90;27.07
68366;BME280;55283;51.466;5.478;2022-11-20T02:28:39;101074.44;;;20.89;27.00
68366;BME280;55283;51.466;5.478;2022-11-20T02:31:07;101068.81;;;20.89;26.75
68366;BME280;55283;51.466;5.478;2022-11-20T02:33:34;101070.03;;;20.88;26.73
68366;BME280;55283;51.466;5.478;2022-11-20T02:35:59;101074.75;;;20.91;26.92
68366;BME280;55283;51.466;5.478;2022-11-20T02:38:27;101066.81;;;20.90;27.05
68366;BME280;55283;51.466;5.478;2022-11-20T02:40:52;101071.63;;;20.89;26.86
68366;BME280;55283;51.466;5.478;2022-11-20T02:43:18;101078.09;;;20.86;26.80
68366;BME280;55283;51.466;5.478;2022-11-20T02:45:48;101073.28;;;20.87;26.87
68366;BME280;55283;51.466;5.478;2022-11-20T02:48:14;101068.09;;;20.85;26.78
68366;BME280;55283;51.466;5.478;2022-11-20T02:50:41;101076.88;;;20.87;26.99
68366;BME280;55283;51.466;5.478;2022-11-20T02:53:07;101071.69;;;20.86;26.75
68366;BME280;55283;51.466;5.478;2022-11-20T02:55:34;101076.50;;;20.85;27.00
68366;BME280;55283;51.466;5.478;2022-11-20T02:58:01;101070.91;;;20.85;27.00
68366;BME280;55283;51.466;5.478;2022-11-20T03:00:28;101070.91;;;20.85;27.04
68366;BME280;55283;51.466;5.478;2022-11-20T03:02:55;101072.56;;;20.83;26.98
68366;BME280;55283;51.466;5.478;2022-11-20T03:05:21;101063.38;;;20.82;26.84
68366;BME280;55283;51.466;5.478;2022-11-20T03:07:47;101063.75;;;20.84;26.88
68366;BME280;55283;51.466;5.478;2022-11-20T03:10:14;101062.59;;;20.82;26.92
68366;BME280;55283;51.466;5.478;2022-11-20T03:12:41;101063.03;;;20.80;27.02
68366;BME280;55283;51.466;5.478;2022-11-20T03:15:07;101064.16;;;20.83;26.85
68366;BME280;55283;51.466;5.478;2022-11-20T03:17:33;101070.56;;;20.83;26.96
68366;BME280;55283;51.466;5.478;2022-11-20T03:20:00;101068.97;;;20.82;26.95
68366;BME280;55283;51.466;5.478;2022-11-20T03:22:29;101073.81;;;20.82;27.08
68366;BME280;55283;51.466;5.478;2022-11-20T03:24:55;101059.88;;;20.78;27.15
68366;BME280;55283;51.466;5.478;2022-11-20T03:27:22;101058.66;;;20.79;26.98
68366;BME280;55283;51.466;5.478;2022-11-20T03:29:49;101061.44;;;20.79;26.99
68366;BME280;55283;51.466;5.478;2022-11-20T03:32:14;101052.63;;;20.80;26.98
68366;BME280;55283;51.466;5.478;2022-11-20T03:34:41;101052.28;;;20.78;26.84
68366;BME280;55283;51.466;5.478;2022-11-20T03:37:06;101047.63;;;20.72;26.94
68366;BME280;55283;51.466;5.478;2022-11-20T03:39:33;101051.13;;;20.76;26.96
68366;BME280;55283;51.466;5.478;2022-11-20T03:41:59;101045.53;;;20.76;27.12
68366;BME280;55283;51.466;5.478;2022-11-20T03:44:26;101043.19;;;20.74;27.12
68366;BME280;55283;51.466;5.478;2022-11-20T03:46:52;101031.16;;;20.74;27.07
68366;BME280;55283;51.466;5.478;2022-11-20T03:49:17;101027.94;;;20.75;27.00
68366;BME280;55283;51.466;5.478;2022-11-20T03:51:44;101025.91;;;20.76;26.93
68366;BME280;55283;51.466;5.478;2022-11-20T03:54:10;101026.69;;;20.76;27.12
68366;BME280;55283;51.466;5.478;2022-11-20T03:56:38;101031.97;;;20.74;27.01
68366;BME280;55283;51.466;5.478;2022-11-20T03:59:05;101029.59;;;20.73;26.97
68366;BME280;55283;51.466;5.478;2022-11-20T04:01:33;101028.03;;;20.72;26.99
68366;BME280;55283;51.466;5.478;2022-11-20T04:04:01;101019.63;;;20.72;27.10
68366;BME280;55283;51.466;5.478;2022-11-20T04:06:30;101020.84;;;20.71;26.95
68366;BME280;55283;51.466;5.478;2022-11-20T04:09:03;101024.00;;;20.73;27.05
68366;BME280;55283;51.466;5.478;2022-11-20T04:11:32;101019.94;;;20.74;26.98
68366;BME280;55283;51.466;5.478;2022-11-20T04:13:59;101015.22;;;20.71;26.82
68366;BME280;55283;51.466;5.478;2022-11-20T04:16:29;101022.84;;;20.70;27.08
68366;BME280;55283;51.466;5.478;2022-11-20T04:18:58;101011.66;;;20.70;27.00
68366;BME280;55283;51.466;5.478;2022-11-20T04:21:26;101020.84;;;20.71;26.78
68366;BME280;55283;51.466;5.478;2022-11-20T04:23:53;101018.03;;;20.71;26.94
68366;BME280;55283;51.466;5.478;2022-11-20T04:26:22;101022.50;;;20.68;26.89
68366;BME280;55283;51.466;5.478;2022-11-20T04:28:50;101020.06;;;20.70;26.76
68366;BME280;55283;51.466;5.478;2022-11-20T04:31:30;101012.00;;;20.72;26.78
68366;BME280;55283;51.466;5.478;2022-11-20T04:34:04;101017.25;;;20.70;26.92
68366;BME280;55283;51.466;5.478;2022-11-20T04:36:30;101009.31;;;20.69;27.05
68366;BME280;55283;51.466;5.478;2022-11-20T04:39:00;101016.56;;;20.66;26.76
68366;BME280;55283;51.466;5.478;2022-11-20T04:41:30;101011.38;;;20.65;26.80
68366;BME280;55283;51.466;5.478;2022-11-20T04:44:01;101014.19;;;20.65;26.99
68366;BME280;55283;51.466;5.478;2022-11-20T04:46:35;101013.41;;;20.64;26.80
68366;BME280;55283;51.466;5.478;2022-11-20T04:49:01;101007.03;;;20.64;26.90
68366;BME280;55283;51.466;5.478;2022-11-20T04:51:27;101001.06;;;20.62;27.03
68366;BME280;55283;51.466;5.478;2022-11-20T04:53:53;101006.56;;;20.65;26.91
68366;BME280;55283;51.466;5.478;2022-11-20T04:56:18;100997.84;;;20.63;26.88
68366;BME280;55283;51.466;5.478;2022-11-20T04:58:44;101005.44;;;20.63;26.75
68366;BME280;55283;51.466;5.478;2022-11-20T05:01:13;101006.66;;;20.62;26.88
68366;BME280;55283;51.466;5.478;2022-11-20T05:03:41;101007.91;;;20.61;26.99
68366;BME280;55283;51.466;5.478;2022-11-20T05:06:09;101001.94;;;20.58;26.98
68366;BME280;55283;51.466;5.478;2022-11-20T05:08:35;100994.22;;;20.63;27.08
68366;BME280;55283;51.466;5.478;2022-11-20T05:11:09;100993.91;;;20.61;26.76
68366;BME280;55283;51.466;5.478;2022-11-20T05:13:37;100984.78;;;20.56;27.07
68366;BME280;55283;51.466;5.478;2022-11-20T05:16:13;100979.53;;;20.58;27.18
68366;BME280;55283;51.466;5.478;2022-11-20T05:18:41;100977.97;;;20.57;27.02
68366;BME280;55283;51.466;5.478;2022-11-20T05:21:09;100981.56;;;20.58;26.93
68366;BME280;55283;51.466;5.478;2022-11-20T05:23:35;100979.53;;;20.58;26.85
68366;BME280;55283;51.466;5.478;2022-11-20T05:26:03;100986.38;;;20.57;26.80
68366;BME280;55283;51.466;5.478;2022-11-20T05:28:30;100973.94;;;20.58;26.85
68366;BME280;55283;51.466;5.478;2022-11-20T05:31:05;100977.19;;;20.57;26.85
68366;BME280;55283;51.466;5.478;2022-11-20T05:33:32;100977.19;;;20.57;27.05
68366;BME280;55283;51.466;5.478;2022-11-20T05:35:59;100981.66;;;20.54;27.03
68366;BME280;55283;51.466;5.478;2022-11-20T05:38:25;100979.63;;;20.55;26.78
68366;BME280;55283;51.466;5.478;2022-11-20T05:40:50;100970.44;;;20.54;27.03
68366;BME280;55283;51.466;5.478;2022-11-20T05:43:16;100980.78;;;20.57;27.11
68366;BME280;55283;51.466;5.478;2022-11-20T05:45:42;100978.41;;;20.56;27.04
68366;BME280;55283;51.466;5.478;2022-11-20T05:48:09;100987.94;;;20.58;26.98
68366;BME280;55283;51.466;5.478;2022-11-20T05:50:36;100987.59;;;20.56;26.91
68366;BME280;55283;51.466;5.478;2022-11-20T05:53:01;100985.22;;;20.55;27.03
68366;BME280;55283;51.466;5.478;2022-11-20T05:55:27;100993.63;;;20.55;26.81
68366;BME280;55283;51.466;5.478;2022-11-20T05:57:53;100987.59;;;20.56;26.92
68366;BME280;55283;51.466;5.478;2022-11-20T06:00:20;100999.25;;;20.55;26.92
68366;BME280;55283;51.466;5.478;2022-11-20T06:02:46;100998.09;;;20.52;27.04
68366;BME280;55283;51.466;5.478;2022-11-20T06:05:13;101005.25;;;20.53;26.93
68366;BME280;55283;51.466;5.478;2022-11-20T06:07:39;101001.25;;;20.54;26.87
68366;BME280;55283;51.466;5.478;2022-11-20T06:10:09;101012.00;;;20.56;26.70
68366;BME280;55283;51.466;5.478;2022-11-20T06:12:36;101008.22;;;20.63;26.87
68366;BME280;55283;51.466;5.478;2022-11-20T06:15:03;101005.72;;;20.52;27.02
68366;BME280;55283;51.466;5.478;2022-11-20T06:17:29;101000.28;;;20.45;26.58
68366;BME280;55283;51.466;5.478;2022-11-20T06:19:55;101002.03;;;20.39;26.75
68366;BME280;55283;51.466;5.478;2022-11-20T06:22:21;101002.88;;;20.35;26.72
68366;BME280;55283;51.466;5.478;2022-11-20T06:24:47;100995.13;;;20.43;26.65
68366;BME280;55283;51.466;5.478;2022-11-20T06:27:13;100992.06;;;20.38;26.83
68366;BME280;55283;51.466;5.478;2022-11-20T06:29:39;100996.44;;;20.39;26.75
68366;BME280;55283;51.466;5.478;2022-11-20T06:32:06;100998.34;;;20.42;26.89
68366;BME280;55283;51.466;5.478;2022-11-20T06:34:33;101000.81;;;20.40;26.78
68366;BME280;55283;51.466;5.478;2022-11-20T06:37:00;101000.38;;;20.41;26.72
68366;BME280;55283;51.466;5.478;2022-11-20T06:39:30;101008.09;;;20.37;26.66
68366;BME280;55283;51.466;5.478;2022-11-20T06:41:57;100997.72;;;20.34;26.68
68366;BME280;55283;51.466;5.478;2022-11-20T06:44:22;101001.72;;;20.33;26.47
68366;BME280;55283;51.466;5.478;2022-11-20T06:46:48;100985.03;;;20.29;26.60
68366;BME280;55283;51.466;5.478;2022-11-20T06:49:18;100988.97;;;20.32;26.53
68366;BME280;55283;51.466;5.478;2022-11-20T06:51:44;100991.69;;;20.35;26.55
68366;BME280;55283;51.466;5.478;2022-11-20T06:54:11;100986.22;;;20.48;26.37
68366;BME280;55283;51.466;5.478;2022-11-20T06:56:36;100975.94;;;20.58;26.19
68366;BME280;55283;51.466;5.478;2022-11-20T06:59:05;100984.25;;;20.62;26.24
68366;BME280;55283;51.466;5.478;2022-11-20T07:01:32;100986.09;;;20.68;26.58
68366;BME280;55283;51.466;5.478;2022-11-20T07:03:58;100989.94;;;20.74;27.10
68366;BME280;55283;51.466;5.478;2022-11-20T07:06:26;100991.06;;;20.77;27.11
68366;BME280;55283;51.466;5.478;2022-11-20T07:08:51;100995.19;;;20.72;27.26
68366;BME280;55283;51.466;5.478;2022-11-20T07:11:20;100984.69;;;20.76;27.37
68366;BME280;55283;51.466;5.478;2022-11-20T07:13:46;100994.31;;;20.75;27.55
68366;BME280;55283;51.466;5.478;2022-11-20T07:16:11;100992.28;;;20.76;27.16
68366;BME280;55283;51.466;5.478;2022-11-20T07:18:37;100987.84;;;20.78;27.55
68366;BME280;55283;51.466;5.478;2022-11-20T07:21:08;100985.47;;;20.77;27.25
68366;BME280;55283;51.466;5.478;2022-11-20T07:23:34;100976.63;;;20.78;27.40
68366;BME280;55283;51.466;5.478;2022-11-20T07:26:08;100973.16;;;20.74;27.35
68366;BME280;55283;51.466;5.478;2022-11-20T07:28:34;100974.72;;;20.75;27.52
68366;BME280;55283;51.466;5.478;2022-11-20T07:31:00;100976.72;;;20.75;27.90
68366;BME280;55283;51.466;5.478;2022-11-20T07:33:25;100974.25;;;20.77;27.86
68366;BME280;55283;51.466;5.478;2022-11-20T07:35:51;100978.19;;;20.79;28.17
68366;BME280;55283;51.466;5.478;2022-11-20T07:38:16;100972.19;;;20.65;27.19
68366;BME280;55283;51.466;5.478;2022-11-20T07:40:42;100970.94;;;20.33;24.55
68366;BME280;55283;51.466;5.478;2022-11-20T07:43:09;100968.47;;;20.02;23.00
68366;BME280;55283;51.466;5.478;2022-11-20T07:45:36;100967.09;;;19.74;23.86
68366;BME280;55283;51.466;5.478;2022-11-20T07:48:03;100970.84;;;19.48;22.91
68366;BME280;55283;51.466;5.478;2022-11-20T07:50:29;100964.75;;;19.33;23.38
68366;BME280;55283;51.466;5.478;2022-11-20T07:53:04;100978.25;;;19.18;22.86
68366;BME280;55283;51.466;5.478;2022-11-20T07:55:32;100976.88;;;19.06;22.97
68366;BME280;55283;51.466;5.478;2022-11-20T07:57:59;100976.09;;;19.06;23.46
68366;BME280;55283;51.466;5.478;2022-11-20T08:00:26;100979.09;;;19.15;24.02
68366;BME280;55283;51.466;5.478;2022-11-20T08:02:51;100988.91;;;19.23;24.59
68366;BME280;55283;51.466;5.478;2022-11-20T08:05:17;100990.00;;;19.29;24.76
68366;BME280;55283;51.466;5.478;2022-11-20T08:07:44;100977.22;;;19.48;25.13
68366;BME280;55283;51.466;5.478;2022-11-20T08:10:12;100983.56;;;19.52;25.21
68366;BME280;55283;51.466;5.478;2022-11-20T08:12:46;100975.56;;;19.51;25.19
68366;BME280;55283;51.466;5.478;2022-11-20T08:15:31;100977.59;;;19.50;25.41
68366;BME280;55283;51.466;5.478;2022-11-20T08:18:03;100977.16;;;19.52;25.56
68366;BME280;55283;51.466;5.478;2022-11-20T08:20:29;100969.91;;;19.54;25.71
68366;BME280;55283;51.466;5.478;2022-11-20T08:23:00;100978.69;;;19.56;25.69
68366;BME280;55283;51.466;5.478;2022-11-20T08:25:30;100964.72;;;19.56;25.95
68366;BME280;55283;51.466;5.478;2022-11-20T08:27:59;100974.84;;;19.66;25.84
68366;BME280;55283;51.466;5.478;2022-11-20T08:30:25;100972.69;;;19.74;25.67
68366;BME280;55283;51.466;5.478;2022-11-20T08:33:00;100971.91;;;19.74;25.86
68366;BME280;55283;51.466;5.478;2022-11-20T08:35:27;100973.84;;;19.77;25.98
68366;BME280;55283;51.466;5.478;2022-11-20T08:37:55;100969.75;;;19.81;26.23
68366;BME280;55283;51.466;5.478;2022-11-20T08:40:20;100972.19;;;19.79;26.63
68366;BME280;55283;51.466;5.478;2022-11-20T08:42:48;100973.84;;;19.77;26.74
68366;BME280;55283;51.466;5.478;2022-11-20T08:45:15;100976.47;;;19.84;26.97
68366;BME280;55283;51.466;5.478;2022-11-20T08:47:41;100975.00;;;19.79;27.12
68366;BME280;55283;51.466;5.478;2022-11-20T08:50:08;100974.13;;;19.82;27.27
68366;BME280;55283;51.466;5.478;2022-11-20T08:52:33;100976.56;;;19.80;27.39
68366;BME280;55283;51.466;5.478;2022-11-20T08:55:00;100978.41;;;19.87;27.58
68366;BME280;55283;51.466;5.478;2022-11-20T08:57:26;100979.03;;;19.95;27.54
68366;BME280;55283;51.466;5.478;2022-11-20T08:59:51;100978.63;;;19.96;27.48
68366;BME280;55283;51.466;5.478;2022-11-20T09:02:19;100970.56;;;19.98;27.78
68366;BME280;55283;51.466;5.478;2022-11-20T09:04:46;100971.00;;;19.97;27.59
68366;BME280;55283;51.466;5.478;2022-11-20T09:07:11;100972.22;;;19.96;27.85
68366;BME280;55283;51.466;5.478;2022-11-20T09:09:38;100961.47;;;19.94;27.92
68366;BME280;55283;51.466;5.478;2022-11-20T09:12:04;100961.84;;;19.96;27.81
68366;BME280;55283;51.466;5.478;2022-11-20T09:14:30;100973.03;;;19.96;27.98
68366;BME280;55283;51.466;5.478;2022-11-20T09:16:57;100963.50;;;19.94;28.19
68366;BME280;55283;51.466;5.478;2022-11-20T09:19:24;100959.09;;;19.93;28.16
68366;BME280;55283;51.466;5.478;2022-11-20T09:21:50;100954.31;;;19.93;28.26
68366;BME280;55283;51.466;5.478;2022-11-20T09:24:17;100951.16;;;19.91;28.36
68366;BME280;55283;51.466;5.478;2022-11-20T09:26:45;100957.09;;;19.93;28.59
68366;BME280;55283;51.466;5.478;2022-11-20T09:29:12;100945.03;;;19.96;28.48
68366;BME280;55283;51.466;5.478;2022-11-20T09:31:38;100946.59;;;19.97;28.70
68366;BME280;55283;51.466;5.478;2022-11-20T09:34:04;100935.50;;;19.94;28.43
68366;BME280;55283;51.466;5.478;2022-11-20T09:36:31;100935.41;;;19.97;28.84
68366;BME280;55283;51.466;5.478;2022-11-20T09:38:57;100933.84;;;19.96;29.08
68366;BME280;55283;51.466;5.478;2022-11-20T09:41:54;100925.00;;;19.98;28.87
68366;BME280;55283;51.466;5.478;2022-11-20T09:53:16;100921.44;;;19.97;29.14
68366;BME280;55283;51.466;5.478;2022-11-20T09:55:47;100917.34;;;20.02;29.27
68366;BME280;55283;51.466;5.478;2022-11-20T09:58:21;100900.97;;;20.00;29.37
68366;BME280;55283;51.466;5.478;2022-11-20T10:00:56;100904.13;;;20.02;29.37
68366;BME280;55283;51.466;5.478;2022-11-20T10:03:41;100904.13;;;20.02;29.60
68366;BME280;55283;51.466;5.478;2022-11-20T10:06:15;100904.81;;;20.06;29.79
68366;BME280;55283;51.466;5.478;2022-11-20T10:08:48;100890.03;;;20.06;29.58
68366;BME280;55283;51.466;5.478;2022-11-20T10:11:35;100882.44;;;20.06;29.65
68366;BME280;55283;51.466;5.478;2022-11-20T10:14:38;100876.84;;;20.06;29.72
68366;BME280;55283;51.466;5.478;2022-11-20T10:17:03;100872.00;;;20.07;29.80
68366;BME280;55283;51.466;5.478;2022-11-20T10:25:19;100842.91;;;20.04;30.08
68366;BME280;55283;51.466;5.478;2022-11-20T10:27:57;100844.81;;;20.07;30.22
68366;BME280;55283;51.466;5.478;2022-11-20T10:30:29;100847.97;;;20.09;30.09
68366;BME280;55283;51.466;5.478;2022-11-20T10:33:11;100843.69;;;20.05;30.18
68366;BME280;55283;51.466;5.478;2022-11-20T10:41:05;100826.03;;;20.08;30.28
68366;BME280;55283;51.466;5.478;2022-11-20T10:43:54;100806.44;;;20.08;30.31
68366;BME280;55283;51.466;5.478;2022-11-20T10:46:23;100804.84;;;20.07;30.41
68366;BME280;55283;51.466;5.478;2022-11-20T10:48:50;100800.13;;;20.04;30.24
68366;BME280;55283;51.466;5.478;2022-11-20T10:54:43;100798.47;;;20.06;30.22
68366;BME280;55283;51.466;5.478;2022-11-20T10:57:23;100789.97;;;20.10;30.14
68366;BME280;55283;51.466;5.478;2022-11-20T11:00:02;100780.13;;;20.05;30.31
68366;BME280;55283;51.466;5.478;2022-11-20T11:02:42;100774.06;;;20.07;30.37
68366;BME280;55283;51.466;5.478;2022-11-20T11:05:25;100770.50;;;20.06;30.46
68366;BME280;55283;51.466;5.478;2022-11-20T11:07:56;100767.94;;;20.12;30.06
68366;BME280;55283;51.466;5.478;2022-11-20T11:10:47;100767.78;;;20.03;30.58
68366;BME280;55283;51.466;5.478;2022-11-20T11:13:22;100772.41;;;20.09;30.26
68366;BME280;55283;51.466;5.478;2022-11-20T11:15:51;100770.31;;;20.13;30.58
68366;BME280;55283;51.466;5.478;2022-11-20T11:18:27;100769.63;;;20.09;30.53
68366;BME280;55283;51.466;5.478;2022-11-20T11:20:54;100755.38;;;20.04;30.73
68366;BME280;55283;51.466;5.478;2022-11-20T11:23:43;100757.75;;;19.89;31.21
68366;BME280;55283;51.466;5.478;2022-11-20T11:26:21;100755.06;;;19.85;31.34
68366;BME280;55283;51.466;5.478;2022-11-20T11:28:57;100769.03;;;19.85;31.46
68366;BME280;55283;51.466;5.478;2022-11-20T11:31:29;100763.88;;;19.84;31.71
68366;BME280;55283;51.466;5.478;2022-11-20T11:34:12;100763.25;;;19.93;31.38
68366;BME280;55283;51.466;5.478;2022-11-20T11:36:40;100764.00;;;20.09;31.31
68366;BME280;55283;51.466;5.478;2022-11-20T11:39:11;100751.25;;;20.08;31.11
68366;BME280;55283;51.466;5.478;2022-11-20T11:41:40;100741.88;;;20.15;31.23
68366;BME280;55283;51.466;5.478;2022-11-20T11:44:19;100736.63;;;20.17;31.03
68366;BME280;55283;51.466;5.478;2022-11-20T11:47:32;100732.16;;;20.20;32.22
68366;BME280;55283;51.466;5.478;2022-11-20T11:52:46;100724.19;;;20.18;32.15
68366;BME280;55283;51.466;5.478;2022-11-20T11:57:59;100706.03;;;20.10;31.92
68366;BME280;55283;51.466;5.478;2022-11-20T12:00:31;100702.44;;;20.09;31.90
68366;BME280;55283;51.466;5.478;2022-11-20T12:05:40;100696.84;;;20.09;31.71
68366;BME280;55283;51.466;5.478;2022-11-20T12:08:17;100691.16;;;20.13;31.53
68366;BME280;55283;51.466;5.478;2022-11-20T12:13:22;100676.28;;;20.16;31.95
68366;BME280;55283;51.466;5.478;2022-11-20T12:15:51;100667.56;;;20.14;31.96
68366;BME280;55283;51.466;5.478;2022-11-20T12:18:20;100654.44;;;20.11;31.97
68366;BME280;55283;51.466;5.478;2022-11-20T12:24:06;100650.38;;;19.99;32.21
68366;BME280;55283;51.466;5.478;2022-11-20T12:26:45;100637.28;;;19.96;32.05
68366;BME280;55283;51.466;5.478;2022-11-20T12:29:40;100630.59;;;20.06;31.65
68366;BME280;55283;51.466;5.478;2022-11-20T12:43:26;100602.94;;;20.08;32.05
68366;BME280;55283;51.466;5.478;2022-11-20T12:49:23;100597.91;;;20.03;32.20
68366;BME280;55283;51.466;5.478;2022-11-20T12:52:15;100593.53;;;20.02;32.04
68366;BME280;55283;51.466;5.478;2022-11-20T12:57:57;100579.66;;;19.99;32.02
68366;BME280;55283;51.466;5.478;2022-11-20T13:00:25;100566.22;;;20.06;31.64
68366;BME280;55283;51.466;5.478;2022-11-20T13:05:46;100557.94;;;20.16;31.71
68366;BME280;55283;51.466;5.478;2022-11-20T13:08:23;100534.22;;;20.20;31.89
68366;BME280;55283;51.466;5.478;2022-11-20T13:14:13;100526.63;;;20.21;31.92
68366;BME280;55283;51.466;5.478;2022-11-20T13:19:28;100524.28;;;20.19;32.19
68366;BME280;55283;51.466;5.478;2022-11-20T13:21:55;100515.31;;;20.24;31.98
68366;BME280;55283;51.466;5.478;2022-11-20T13:27:05;100519.69;;;20.25;32.10
68366;BME280;55283;51.466;5.478;2022-11-20T13:29:36;100499.97;;;20.29;31.97
68366;BME280;55283;51.466;5.478;2022-11-20T13:32:20;100499.41;;;20.34;32.00
68366;BME280;55283;51.466;5.478;2022-11-20T13:34:58;100493.13;;;20.30;32.29
68366;BME280;55283;51.466;5.478;2022-11-20T13:37:34;100489.34;;;20.24;32.10
68366;BME280;55283;51.466;5.478;2022-11-20T13:40:22;100485.41;;;20.21;32.33
68366;BME280;55283;51.466;5.478;2022-11-20T13:46:09;100471.53;;;20.18;32.29
68366;BME280;55283;51.466;5.478;2022-11-20T13:48:42;100470.31;;;20.19;32.34
68366;BME280;55283;51.466;5.478;2022-11-20T13:59:40;100452.59;;;20.22;32.25
68366;BME280;55283;51.466;5.478;2022-11-20T14:02:15;100444.69;;;20.20;32.15
68366;BME280;55283;51.466;5.478;2022-11-20T14:04:52;100446.91;;;20.25;32.13
68366;BME280;55283;51.466;5.478;2022-11-20T14:07:21;100436.38;;;20.29;32.09
68366;BME280;55283;51.466;5.478;2022-11-20T14:09:54;100431.44;;;20.33;32.14
68366;BME280;55283;51.466;5.478;2022-11-20T14:12:23;100436.72;;;20.31;32.08
68366;BME280;55283;51.466;5.478;2022-11-20T14:14:53;100436.25;;;20.33;32.16
68366;BME280;55283;51.466;5.478;2022-11-20T14:19:58;100421.13;;;20.30;32.16
68366;BME280;55283;51.466;5.478;2022-11-20T14:22:26;100414.75;;;20.30;32.34
68366;BME280;55283;51.466;5.478;2022-11-20T14:27:41;100408.59;;;20.35;32.20
68366;BME280;55283;51.466;5.478;2022-11-20T14:30:16;100406.16;;;20.37;32.16
68366;BME280;55283;51.466;5.478;2022-11-20T14:32:43;100406.16;;;20.37;32.05